Time;durP1;ratioP1;P1;durP2;ratioP2;P2;SDS_P1;SDS_P2;PMS_P1;PMS_P2;Temp;Humidity;BMP_temperature;BMP_pressure;BME280_temperature;BME280_humidity;BME280_pressure;Samples;Min_cycle;Max_cycle;Signal;HPM_P1;HPM_P2
2022/01/11 00:00:37;;;;;;;17.47;9.10;;;;;;;4.99;100.00;98199.19;4931076;29;20184;-87
2022/01/11 00:03:05;;;;;;;18.67;8.40;;;;;;;4.16;100.00;98070.00;4931026;29;20209;-88
2022/01/11 00:05:50;;;;;;;17.33;8.83;;;;;;;4.13;100.00;98068.22;4932464;29;20177;-86
2022/01/11 00:08:18;;;;;;;17.77;8.73;;;;;;;5.86;100.00;98362.13;4939339;29;20185;-86
2022/01/11 00:10:53;;;;;;;17.13;8.40;;;;;;;7.67;100.00;98676.19;4927499;29;20173;-86
2022/01/11 00:13:19;;;;;;;16.00;8.43;;;;;;;6.19;100.00;98454.06;4955345;29;20169;-87
2022/01/11 00:15:46;;;;;;;18.23;8.40;;;;;;;4.01;100.00;98061.78;4935435;29;20181;-87
2022/01/11 00:18:13;;;;;;;17.30;8.03;;;;;;;4.82;100.00;98204.19;4942865;29;20207;-87
2022/01/11 00:20:39;;;;;;;15.33;7.80;;;;;;;5.81;100.00;98384.47;4931772;29;20192;-87
2022/01/11 00:25:36;;;;;;;15.33;8.00;;;;;;;5.18;100.00;98266.97;4962611;28;20173;-86
2022/01/11 00:28:03;;;;;;;15.57;7.97;;;;;;;7.85;100.00;98699.66;4945198;29;20691;-86
2022/01/11 00:30:33;;;;;;;15.33;7.57;;;;;;;7.67;100.00;98702.22;4944587;29;20252;-86
2022/01/11 00:33:03;;;;;;;14.43;8.07;;;;;;;4.91;100.00;98205.50;4961385;29;20211;-87
2022/01/11 00:35:40;;;;;;;12.40;7.07;;;;;;;6.36;100.00;98508.47;4963138;29;20662;-85
2022/01/11 00:38:08;;;;;;;15.20;7.43;;;;;;;6.14;100.00;98495.72;4946281;29;20172;-85
2022/01/11 00:40:34;;;;;;;14.30;7.33;;;;;;;6.13;100.00;98451.28;4944878;29;20290;-86
2022/01/11 00:43:01;;;;;;;13.83;7.17;;;;;;;5.94;100.00;98453.72;4944380;29;20188;-87
2022/01/11 00:45:27;;;;;;;14.80;7.50;;;;;;;6.54;100.00;98548.66;4945019;29;20184;-86
2022/01/11 00:47:55;;;;;;;15.70;7.83;;;;;;;7.65;100.00;98708.88;4943660;29;20225;-88
2022/01/11 00:50:21;;;;;;;15.53;7.63;;;;;;;7.37;100.00;98694.97;4961138;29;20629;-87
2022/01/11 00:52:48;;;;;;;15.17;7.57;;;;;;;5.30;100.00;98372.88;4944699;29;20195;-88
2022/01/11 00:55:15;;;;;;;15.00;7.23;;;;;;;4.93;100.00;98314.25;4943980;29;20185;-85
2022/01/11 00:57:40;;;;;;;12.97;7.40;;;;;;;3.36;100.00;98021.91;4960153;29;20593;-87
2022/01/11 01:00:08;;;;;;;13.43;6.97;;;;;;;4.38;100.00;98175.41;4946439;29;20181;-87
2022/01/11 01:02:41;;;;;;;14.03;7.60;;;;;;;5.93;100.00;98507.28;4972033;29;20180;-86
2022/01/11 01:05:08;;;;;;;14.30;7.47;;;;;;;7.38;100.00;98778.16;4962632;29;20278;-86
2022/01/11 01:07:34;;;;;;;14.47;7.30;;;;;;;5.28;100.00;98398.69;4943772;29;20183;-86
2022/01/11 01:10:17;;;;;;;15.57;7.40;;;;;;;3.80;100.00;98148.31;4962057;29;20176;-85
2022/01/11 01:12:43;;;;;;;11.87;6.83;;;;;;;5.34;100.00;98409.88;4944131;29;20187;-86
2022/01/11 01:15:09;;;;;;;13.80;7.13;;;;;;;5.11;100.00;98390.34;4943154;29;20177;-88
2022/01/11 01:17:36;;;;;;;13.60;7.53;;;;;;;6.05;100.00;98534.59;4960174;29;20192;-85
2022/01/11 01:20:04;;;;;;;12.27;6.97;;;;;;;4.93;100.00;98366.03;4944893;29;20192;-85
2022/01/11 01:22:30;;;;;;;13.00;7.00;;;;;;;5.21;100.00;98399.19;4944616;29;20279;-86
2022/01/11 01:24:55;;;;;;;12.57;6.97;;;;;;;5.31;100.00;98439.84;4961933;29;20279;-85
2022/01/11 01:27:21;;;;;;;11.27;6.40;;;;;;;5.95;100.00;98548.41;4960703;29;20233;-86
2022/01/11 01:29:47;;;;;;;12.77;6.60;;;;;;;3.41;100.00;98117.16;4942221;29;20645;-87
2022/01/11 01:32:13;;;;;;;13.70;7.00;;;;;;;4.85;100.00;98360.66;4966451;29;20187;-86
2022/01/11 01:34:39;;;;;;;12.37;6.80;;;;;;;6.08;100.00;98555.72;4950812;29;20563;-88
2022/01/11 01:37:07;;;;;;;13.30;7.00;;;;;;;5.79;100.00;98543.41;4944684;29;20193;-84
2022/01/11 01:39:33;;;;;;;12.87;7.27;;;;;;;5.94;100.00;98560.09;4963232;29;20187;-85
2022/01/11 01:42:04;;;;;;;14.43;6.93;;;;;;;7.32;100.00;98790.44;4964822;29;20228;-86
2022/01/11 01:44:32;;;;;;;14.07;7.07;;;;;;;6.93;100.00;98721.50;4963621;29;20593;-86
2022/01/11 01:46:58;;;;;;;13.13;6.90;;;;;;;5.43;100.00;98479.72;4963906;29;20588;-87
2022/01/11 01:49:26;;;;;;;11.87;6.23;;;;;;;4.95;100.00;98433.00;4964230;29;20219;-85
2022/01/11 01:51:52;;;;;;;13.57;6.50;;;;;;;7.18;100.00;98788.06;4950833;29;20315;-86
2022/01/11 01:54:18;;;;;;;12.00;6.70;;;;;;;5.55;100.00;98550.59;4968809;29;20180;-86
2022/01/11 01:56:45;;;;;;;12.40;6.60;;;;;;;4.82;100.00;98409.75;4966416;29;20239;-86
2022/01/11 01:59:12;;;;;;;12.70;6.30;;;;;;;3.98;100.00;98322.81;4947468;29;20642;-86
2022/01/11 02:01:45;;;;;;;12.07;6.90;;;;;;;4.51;100.00;98407.34;4964844;29;20225;-87
2022/01/11 02:04:11;;;;;;;14.30;6.97;;;;;;;3.91;100.00;98324.94;4962171;29;20208;-87
2022/01/11 02:06:37;;;;;;;11.47;6.27;;;;;;;4.84;100.00;98479.25;4964229;29;20212;-88
2022/01/11 02:09:03;;;;;;;11.87;6.67;;;;;;;4.72;100.00;98464.44;4946818;29;20191;-87
2022/01/11 02:11:30;;;;;;;14.70;7.07;;;;;;;3.54;100.00;98259.63;4963103;29;20199;-88
2022/01/11 02:13:56;;;;;;;13.77;7.57;;;;;;;6.53;100.00;98841.09;4965909;29;20416;-86
2022/01/11 02:16:22;;;;;;;15.13;7.80;;;;;;;6.17;100.00;98762.22;4967531;29;20195;-86
2022/01/11 02:18:48;;;;;;;15.70;8.00;;;;;;;5.02;100.00;98562.09;4962481;29;20189;-85
2022/01/11 02:21:14;;;;;;;15.27;7.87;;;;;;;3.15;100.00;98248.38;4947857;29;20227;-87
2022/01/11 02:23:40;;;;;;;14.97;7.67;;;;;;;3.08;100.00;98262.97;4964286;29;20463;-86
2022/01/11 02:26:06;;;;;;;16.00;8.20;;;;;;;2.47;100.00;98146.34;4968740;29;20200;-87
2022/01/11 02:28:32;;;;;;;15.77;7.90;;;;;;;2.26;100.00;98121.03;4976193;29;20205;-84
2022/01/11 02:31:01;;;;;;;16.33;7.93;;;;;;;4.96;100.00;98580.19;4972512;29;20177;-85
2022/01/11 02:33:38;;;;;;;16.70;8.10;;;;;;;4.14;100.00;98435.53;4949627;29;20409;-86
2022/01/11 02:36:09;;;;;;;15.80;7.80;;;;;;;2.57;100.00;98176.88;4965199;29;20416;-85
2022/01/11 02:38:36;;;;;;;14.70;7.77;;;;;;;1.93;100.00;98131.66;4949968;29;20474;-85
2022/01/11 02:41:03;;;;;;;14.57;7.60;;;;;;;4.78;100.00;98633.53;4959575;29;20432;-86
2022/01/11 02:43:29;;;;;;;13.60;7.27;;;;;;;4.71;100.00;98627.31;4972572;29;20464;-86
2022/01/11 02:45:55;;;;;;;14.10;7.70;;;;;;;6.41;100.00;98848.00;4952903;29;20439;-86
2022/01/11 02:48:21;;;;;;;13.73;7.20;;;;;;;6.47;100.00;98838.28;4966827;28;20472;-87
2022/01/11 02:50:48;;;;;;;14.90;7.30;;;;;;;3.57;100.00;98348.19;4949497;29;20432;-86
2022/01/11 02:53:15;;;;;;;12.67;6.57;;;;;;;6.32;100.00;98827.44;4952437;29;20248;-86
2022/01/11 02:55:43;;;;;;;13.90;6.80;;;;;;;4.01;100.00;98483.22;4970287;29;20413;-87
2022/01/11 02:58:09;;;;;;;13.67;7.17;;;;;;;5.58;100.00;98753.19;4971195;29;20400;-88
2022/01/11 03:00:35;;;;;;;14.40;7.33;;;;;;;1.73;100.00;98110.59;4971739;29;20450;-84
2022/01/11 03:03:17;;;;;;;13.70;6.67;;;;;;;3.91;100.00;98471.00;4971320;29;20424;-88
2022/01/11 03:05:57;;;;;;;13.43;6.83;;;;;;;6.03;100.00;98848.56;4950551;29;20172;-84
2022/01/11 03:08:35;;;;;;;15.03;6.70;;;;;;;5.45;100.00;98738.28;4969247;29;20489;-87
2022/01/11 03:11:01;;;;;;;14.87;7.20;;;;;;;2.28;100.00;98191.91;4953616;29;20423;-86
2022/01/11 03:13:27;;;;;;;12.77;6.30;;;;;;;5.81;100.00;98821.44;4969035;29;20476;-87
2022/01/11 03:15:54;;;;;;;13.03;6.43;;;;;;;5.21;100.00;98693.56;4969950;29;20419;-87
2022/01/11 03:18:21;;;;;;;13.40;6.70;;;;;;;4.81;100.00;98633.69;4969875;29;20434;-83
2022/01/11 03:20:49;;;;;;;12.60;6.63;;;;;;;3.85;100.00;98478.16;4994287;28;20439;-84
2022/01/11 03:23:16;;;;;;;10.90;5.67;;;;;;;4.47;100.00;98620.97;4980337;28;20471;-86
2022/01/11 03:25:42;;;;;;;13.37;6.20;;;;;;;5.96;100.00;98898.41;4993395;28;20430;-85
2022/01/11 03:28:08;;;;;;;13.20;6.07;;;;;;;4.07;100.00;98582.84;4969971;28;20430;-86
2022/01/11 03:30:34;;;;;;;12.27;6.77;;;;;;;1.63;100.00;98166.56;4969922;28;20423;-86
2022/01/11 03:33:00;;;;;;;11.40;5.90;;;;;;;5.23;100.00;98732.13;4977462;28;20342;-85
2022/01/11 03:35:28;;;;;;;11.93;5.90;;;;;;;3.31;100.00;98432.59;4968704;28;20223;-86
2022/01/11 03:37:54;;;;;;;11.33;6.00;;;;;;;3.02;100.00;98382.59;4986221;28;20415;-86
2022/01/11 03:40:23;;;;;;;10.47;5.60;;;;;;;4.91;100.00;98701.97;4968077;28;20435;-86
2022/01/11 03:42:49;;;;;;;11.97;6.07;;;;;;;6.11;100.00;98902.59;4969446;28;20184;-86
2022/01/11 03:45:16;;;;;;;11.20;5.90;;;;;;;2.14;100.00;98201.09;4953001;29;20556;-87
2022/01/11 03:47:43;;;;;;;12.20;6.57;;;;;;;2.81;100.00;98360.63;4964982;29;20264;-87
2022/01/11 03:50:10;;;;;;;9.67;5.50;;;;;;;6.08;100.00;98887.34;4967050;29;20456;-86
2022/01/11 03:52:39;;;;;;;12.40;6.07;;;;;;;6.04;100.00;98898.03;4965217;29;20432;-87
2022/01/11 03:55:12;;;;;;;10.07;5.73;;;;;;;1.96;100.00;98217.53;4949463;29;20440;-85
2022/01/11 03:57:38;;;;;;;11.83;5.50;;;;;;;3.48;100.00;98476.91;4952620;29;20444;-86
2022/01/11 04:00:10;;;;;;;11.83;6.43;;;;;;;1.68;100.00;98200.09;4953300;29;20512;-87
2022/01/11 04:02:35;;;;;;;16.23;8.60;;;;;;;1.85;100.00;98202.69;4952620;29;20432;-87
2022/01/11 04:05:02;;;;;;;19.63;10.73;;;;;;;4.23;100.00;98622.16;4950644;29;21080;-86
2022/01/11 04:07:29;;;;;;;23.03;10.63;;;;;;;1.85;100.00;98243.50;4965972;29;20252;-85
2022/01/11 04:09:56;;;;;;;12.10;5.77;;;;;;;5.61;100.00;98874.75;4947610;29;20427;-86
2022/01/11 04:12:22;;;;;;;13.77;7.23;;;;;;;4.11;100.00;98643.22;4965925;29;20499;-86
2022/01/11 04:14:48;;;;;;;15.93;7.60;;;;;;;4.99;100.00;98770.09;4967885;29;20404;-87
2022/01/11 04:17:14;;;;;;;11.33;6.23;;;;;;;1.90;100.00;98257.09;4952307;29;20436;-86
2022/01/11 04:19:40;;;;;;;11.40;6.07;;;;;;;4.42;100.00;98655.78;4949318;29;20199;-88
2022/01/11 04:22:15;;;;;;;9.87;5.33;;;;;;;2.30;100.00;98315.19;5100411;27;20549;-87
2022/01/11 04:24:41;;;;;;;12.87;6.50;;;;;;;1.74;100.00;98212.94;5082286;28;20882;-88
2022/01/11 04:27:06;;;;;;;11.43;6.07;;;;;;;1.82;100.00;98234.94;5099184;28;20168;-88
2022/01/11 04:29:32;;;;;;;14.07;7.73;;;;;;;3.61;100.00;98546.88;5099672;28;20168;-87
2022/01/11 04:31:58;;;;;;;13.13;6.80;;;;;;;2.42;100.00;98348.34;5101427;28;20203;-87
2022/01/11 04:34:27;;;;;;;12.83;6.97;;;;;;;4.26;100.00;98674.91;5099866;28;20164;-86
2022/01/11 04:36:53;;;;;;;11.87;6.47;;;;;;;2.84;100.00;98449.88;5098254;28;20440;-86
2022/01/11 04:39:18;;;;;;;13.40;7.43;;;;;;;2.02;100.00;98307.72;5098180;28;20425;-88
2022/01/11 04:41:44;;;;;;;15.87;7.80;;;;;;;4.18;100.00;98690.34;5098575;28;20208;-86
2022/01/11 04:44:10;;;;;;;12.53;6.50;;;;;;;2.10;100.00;98330.63;5100445;28;20162;-87
2022/01/11 04:46:35;;;;;;;11.63;5.90;;;;;;;3.70;100.00;98609.97;5099856;28;20172;-86
2022/01/11 04:49:01;;;;;;;12.23;6.40;;;;;;;2.34;100.00;98374.50;5097989;28;20625;-88
2022/01/11 04:51:28;;;;;;;13.43;6.20;;;;;;;2.13;100.00;98314.19;5098311;28;20187;-89
2022/01/11 04:53:55;;;;;;;11.87;6.27;;;;;;;4.24;100.00;98676.44;5097607;28;20179;-87
2022/01/11 04:56:22;;;;;;;11.37;6.43;;;;;;;2.25;100.00;98324.06;5102527;28;20437;-87
2022/01/11 04:58:48;;;;;;;10.30;5.33;;;;;;;5.67;100.00;98912.75;5105761;28;20410;-88
2022/01/11 05:01:14;;;;;;;10.33;5.47;;;;;;;5.37;100.00;98896.00;5103230;28;20490;-87
2022/01/11 05:03:40;;;;;;;9.77;5.57;;;;;;;2.16;100.00;98341.84;5098741;28;20465;-87
2022/01/11 05:06:05;;;;;;;12.40;5.83;;;;;;;4.91;100.00;98841.53;5099948;28;20189;-85
2022/01/11 05:08:31;;;;;;;7.50;4.47;;;;;;;3.23;100.00;98546.31;5098806;28;20410;-87
2022/01/11 05:10:58;;;;;;;8.07;4.60;;;;;;;3.51;100.00;98598.06;5106444;28;20521;-87
2022/01/11 05:13:23;;;;;;;8.87;4.87;;;;;;;1.72;100.00;98301.78;5101339;28;20414;-86
2022/01/11 05:15:49;;;;;;;8.67;4.23;;;;;;;1.47;100.00;98313.53;5098039;28;20414;-87
2022/01/11 05:18:15;;;;;;;8.03;4.00;;;;;;;4.41;100.00;98778.50;5034017;28;20244;-87
2022/01/11 05:20:42;;;;;;;7.47;4.20;;;;;;;2.96;100.00;98506.47;5034412;28;20948;-88
2022/01/11 05:23:10;;;;;;;8.10;4.50;;;;;;;1.74;100.00;98344.25;5036657;28;20420;-87
2022/01/11 05:25:36;;;;;;;7.23;4.13;;;;;;;4.12;100.00;98717.56;5036916;28;20413;-87
2022/01/11 05:28:01;;;;;;;7.67;4.13;;;;;;;4.50;100.00;98776.50;5037277;28;20996;-86
2022/01/11 05:30:30;;;;;;;8.80;5.40;;;;;;;1.94;100.00;98356.31;5042403;28;20170;-87
2022/01/11 05:32:56;;;;;;;9.57;5.17;;;;;;;5.50;100.00;98946.09;5036111;28;20175;-86
2022/01/11 05:35:24;;;;;;;9.93;5.57;;;;;;;1.55;100.00;98322.34;5026368;28;20424;-86
2022/01/11 05:37:50;;;;;;;9.37;5.47;;;;;;;1.57;100.00;98330.78;5025249;28;20433;-86
2022/01/11 05:40:16;;;;;;;10.43;5.90;;;;;;;3.60;100.00;98651.91;5029185;28;20617;-88
2022/01/11 05:42:44;;;;;;;11.07;5.80;;;;;;;2.03;100.00;98401.78;5034999;28;20433;-89
2022/01/11 05:45:11;;;;;;;10.10;5.37;;;;;;;2.01;100.00;98395.81;5027545;28;20440;-86
2022/01/11 05:47:37;;;;;;;11.03;5.07;;;;;;;1.62;100.00;98364.31;5026371;28;20438;-86
2022/01/11 05:50:05;;;;;;;11.23;5.80;;;;;;;2.19;100.00;98480.94;5026574;28;20425;-87
2022/01/11 05:52:31;;;;;;;8.50;5.03;;;;;;;1.92;100.00;98400.28;5028824;28;20178;-87
2022/01/11 05:54:57;;;;;;;10.13;5.67;;;;;;;2.47;100.00;98469.38;5029726;28;20398;-86
2022/01/11 05:57:22;;;;;;;9.23;5.13;;;;;;;5.67;100.00;99063.41;5034230;28;20186;-87
2022/01/11 05:59:48;;;;;;;11.33;5.40;;;;;;;1.01;100.00;98269.13;5031922;28;20434;-88
2022/01/11 06:02:14;;;;;;;10.73;5.53;;;;;;;3.22;100.00;98670.50;5026588;28;20560;-87
2022/01/11 06:04:40;;;;;;;12.37;5.97;;;;;;;5.32;100.00;99008.69;5026920;28;20421;-88
2022/01/11 06:07:05;;;;;;;11.53;5.97;;;;;;;3.49;100.00;98698.78;5025711;28;20418;-86
2022/01/11 06:09:31;;;;;;;11.57;6.13;;;;;;;5.60;100.00;99070.50;5025676;28;20179;-90
2022/01/11 06:11:57;;;;;;;10.80;5.80;;;;;;;1.94;100.00;98432.78;5027392;28;20205;-86
2022/01/11 06:14:23;;;;;;;10.73;5.67;;;;;;;1.33;100.00;98374.16;5026699;28;20175;-87
2022/01/11 06:16:49;;;;;;;10.60;6.27;;;;;;;3.46;100.00;98742.00;5021974;28;20167;-85
2022/01/11 06:19:14;;;;;;;10.10;5.70;;;;;;;1.91;100.00;98452.56;5045019;28;20427;-89
2022/01/11 06:21:40;;;;;;;11.00;5.57;;;;;;;2.76;100.00;98614.38;5042358;28;20233;-88
2022/01/11 06:24:07;;;;;;;10.90;6.20;;;;;;;1.85;100.00;98428.09;5038334;28;20236;-87
2022/01/11 06:26:33;;;;;;;11.93;6.67;;;;;;;4.26;100.00;98850.28;5038493;28;20170;-86
2022/01/11 06:29:00;;;;;;;12.77;6.30;;;;;;;5.66;100.00;99118.56;5036531;28;21102;-86
2022/01/11 06:31:25;;;;;;;14.37;6.93;;;;;;;1.30;100.00;98363.97;5038114;28;20186;-88
2022/01/11 06:33:51;;;;;;;12.87;6.37;;;;;;;4.90;100.00;98988.59;5036507;28;21031;-87
2022/01/11 06:36:18;;;;;;;13.33;7.30;;;;;;;2.43;100.00;98571.47;5036022;28;20188;-88
2022/01/11 06:38:45;;;;;;;14.20;6.83;;;;;;;4.21;100.00;98854.13;5035856;28;20174;-88
2022/01/11 06:41:12;;;;;;;14.30;7.50;;;;;;;4.53;100.00;98900.34;5020227;28;20468;-88
2022/01/11 06:43:38;;;;;;;17.90;7.80;;;;;;;4.33;100.00;98868.25;5035761;28;20553;-87
2022/01/11 06:46:05;;;;;;;15.50;8.23;;;;;;;5.05;100.00;99023.75;5021678;28;20925;-87
2022/01/11 06:48:33;;;;;;;17.93;8.30;;;;;;;5.58;100.00;99127.25;5039832;28;20401;-87
2022/01/11 06:50:58;;;;;;;16.87;8.53;;;;;;;4.04;100.00;98841.47;5036897;28;20896;-87
2022/01/11 06:53:25;;;;;;;18.63;8.97;;;;;;;3.38;100.00;98749.78;5036791;28;20432;-88
2022/01/11 06:55:53;;;;;;;17.20;9.00;;;;;;;3.44;100.00;98760.19;5040732;28;20201;-86
2022/01/11 06:58:26;;;;;;;17.97;9.63;;;;;;;5.68;100.00;99132.06;5041835;28;20544;-87
2022/01/11 07:00:58;;;;;;;36.27;17.10;;;;;;;4.68;100.00;98980.59;5048430;28;20460;-87
2022/01/11 07:03:23;;;;;;;39.27;18.13;;;;;;;4.82;100.00;99008.97;5042047;28;20413;-86
2022/01/11 07:05:49;;;;;;;23.20;11.27;;;;;;;4.23;100.00;98902.69;5044254;28;20428;-88
2022/01/11 07:08:14;;;;;;;20.63;10.90;;;;;;;5.65;100.00;99167.91;5041664;28;20171;-87
2022/01/11 07:10:40;;;;;;;19.77;9.97;;;;;;;3.05;100.00;98712.75;5040929;28;20175;-88
2022/01/11 07:13:05;;;;;;;21.03;10.77;;;;;;;5.38;100.00;99109.38;5038733;28;20210;-85
2022/01/11 07:15:31;;;;;;;20.40;9.33;;;;;;;4.97;100.00;99078.47;5038718;28;20205;-87
2022/01/11 07:17:57;;;;;;;19.77;10.50;;;;;;;4.08;100.00;98946.06;5040740;28;20178;-87
2022/01/11 07:20:23;;;;;;;24.47;11.50;;;;;;;4.66;100.00;99014.75;5040286;28;20233;-89
2022/01/11 07:22:49;;;;;;;22.67;11.20;;;;;;;1.62;100.00;98499.00;5040235;28;20197;-88
2022/01/11 07:25:15;;;;;;;21.10;11.20;;;;;;;1.72;100.00;98520.41;5040368;28;20421;-86
2022/01/11 07:27:40;;;;;;;21.53;11.23;;;;;;;1.08;100.00;98415.72;5041086;28;20174;-86
2022/01/11 07:30:09;;;;;;;22.23;11.57;;;;;;;5.61;100.00;99177.66;5043267;28;20181;-85
2022/01/11 07:32:35;;;;;;;23.07;11.87;;;;;;;3.20;100.00;98776.19;5037638;28;20178;-86
2022/01/11 07:35:03;;;;;;;24.93;11.50;;;;;;;5.50;100.00;99133.47;5035672;28;20413;-86
2022/01/11 07:37:29;;;;;;;25.80;11.97;;;;;;;4.19;100.00;98886.59;5038147;28;20454;-87
2022/01/11 07:39:55;;;;;;;24.77;11.93;;;;;;;4.40;100.00;98994.72;5035533;28;20528;-85
2022/01/11 07:42:21;;;;;;;23.37;11.40;;;;;;;5.82;100.00;99199.88;5041819;28;20237;-86
2022/01/11 07:44:50;;;;;;;20.67;10.40;;;;;;;2.81;100.00;98700.47;5043414;28;20189;-87
2022/01/11 07:47:17;;;;;;;23.40;10.70;;;;;;;3.26;100.00;98776.59;5037391;28;20835;-85
2022/01/11 07:49:42;;;;;;;22.27;10.60;;;;;;;2.26;100.00;98622.84;5035361;28;20910;-86
2022/01/11 07:52:08;;;;;;;19.63;10.20;;;;;;;2.22;100.00;98628.44;5043361;28;20433;-84
2022/01/11 07:54:34;;;;;;;19.93;10.43;;;;;;;2.72;100.00;98704.88;5051855;28;20162;-86
2022/01/11 07:56:59;;;;;;;19.60;10.20;;;;;;;5.67;100.00;99214.06;5048394;28;20499;-86
2022/01/11 07:59:25;;;;;;;18.97;10.00;;;;;;;4.43;100.00;98997.44;5020741;28;20213;-87
2022/01/11 08:01:50;;;;;;;17.03;8.80;;;;;;;4.02;100.00;98983.25;5043142;28;20237;-84
2022/01/11 08:04:15;;;;;;;22.57;9.87;;;;;;;5.15;100.00;99174.03;5049551;28;20183;-85
2022/01/11 08:06:41;;;;;;;418.50;145.57;;;;;;;2.80;100.00;98778.69;5021016;28;20234;-85
2022/01/11 08:09:07;;;;;;;136.10;46.97;;;;;;;1.92;100.00;98629.84;5040091;28;20686;-86
2022/01/11 08:11:35;;;;;;;23.17;12.37;;;;;;;5.58;100.00;99238.59;5035517;28;20174;-86
2022/01/11 08:14:00;;;;;;;31.13;14.20;;;;;;;3.85;100.00;98947.91;5035121;28;20416;-85
2022/01/11 08:16:26;;;;;;;36.43;18.67;;;;;;;2.41;100.00;98683.75;5034650;28;20427;-87
2022/01/11 08:18:51;;;;;;;218.57;121.97;;;;;;;3.05;100.00;98817.75;5033890;28;20185;-85
2022/01/11 08:21:16;;;;;;;47.23;22.20;;;;;;;4.31;100.00;99001.72;5038627;28;20237;-86
2022/01/11 08:23:42;;;;;;;125.57;55.07;;;;;;;3.40;100.00;98893.38;5037312;28;20188;-85
2022/01/11 08:26:07;;;;;;;26.13;12.50;;;;;;;3.65;100.00;98924.16;5034169;28;20220;-85
2022/01/11 08:28:33;;;;;;;20.70;10.43;;;;;;;3.55;100.00;98905.19;5033013;28;20193;-85
2022/01/11 08:31:00;;;;;;;16.73;9.03;;;;;;;4.11;100.00;99025.53;5034565;28;20166;-85
2022/01/11 08:33:25;;;;;;;29.43;14.30;;;;;;;5.18;100.00;99194.31;5035946;28;20260;-88
2022/01/11 08:35:52;;;;;;;19.43;10.10;;;;;;;4.05;100.00;99005.97;5034292;28;20817;-85
2022/01/11 08:38:17;;;;;;;15.53;8.13;;;;;;;2.22;100.00;98644.28;5034725;28;20627;-86
2022/01/11 08:40:45;;;;;;;15.67;9.13;;;;;;;4.28;100.00;98999.03;5035384;28;20464;-87
2022/01/11 08:43:10;;;;;;;15.60;9.00;;;;;;;2.29;100.00;98672.97;5033498;28;20567;-87
2022/01/11 08:45:37;;;;;;;13.80;7.60;;;;;;;4.45;100.00;99091.97;5037081;28;20412;-86
2022/01/11 08:48:04;;;;;;;14.60;8.10;;;;;;;5.60;100.00;99257.16;5037557;28;20182;-86
2022/01/11 08:50:30;;;;;;;14.80;7.67;;;;;;;5.59;100.00;99255.41;5033996;28;20420;-88
2022/01/11 08:52:57;;;;;;;14.17;7.87;;;;;;;4.07;100.00;98996.91;5035262;28;20436;-87
2022/01/11 08:55:23;;;;;;;25.10;13.33;;;;;;;5.70;100.00;99261.94;5035999;28;20397;-85
2022/01/11 08:57:49;;;;;;;18.10;8.93;;;;;;;4.17;100.00;99040.94;5035432;28;20471;-87
2022/01/11 09:00:19;;;;;;;21.47;10.60;;;;;;;5.45;100.00;99225.22;5034942;28;20831;-88
2022/01/11 09:02:51;;;;;;;38.77;17.43;;;;;;;3.24;100.00;98848.16;5036556;28;20559;-86
2022/01/11 09:05:17;;;;;;;115.97;47.33;;;;;;;1.94;100.00;98629.94;5035521;28;20412;-86
2022/01/11 09:07:42;;;;;;;46.47;23.47;;;;;;;2.46;100.00;98742.34;5039436;28;20550;-88
2022/01/11 09:10:09;;;;;;;144.13;49.17;;;;;;;5.62;100.00;99277.31;5039898;28;20428;-86
2022/01/11 09:12:36;;;;;;;23.90;11.80;;;;;;;5.19;100.00;99188.53;5040225;28;20689;-85
2022/01/11 09:15:04;;;;;;;16.40;9.30;;;;;;;4.27;100.00;99027.34;5040102;28;20459;-86
2022/01/11 09:17:31;;;;;;;24.77;11.73;;;;;;;5.03;100.00;99169.13;5019355;28;20483;-85
2022/01/11 09:19:57;;;;;;;39.30;16.67;;;;;;;3.30;100.00;98891.91;5026540;28;20971;-86
2022/01/11 09:22:23;;;;;;;46.03;23.30;;;;;;;2.68;100.00;98815.41;5041092;28;20496;-86
2022/01/11 09:24:50;;;;;;;16.00;8.27;;;;;;;2.61;100.00;98818.25;5039684;28;20638;-88
2022/01/11 09:27:16;;;;;;;16.90;9.20;;;;;;;4.41;100.00;99076.66;5041730;28;20170;-87
2022/01/11 09:29:43;;;;;;;18.97;9.87;;;;;;;5.50;100.00;99274.06;5046280;28;20445;-87
2022/01/11 09:32:10;;;;;;;22.70;11.20;;;;;;;2.52;100.00;98747.75;5049021;28;20439;-86
2022/01/11 09:34:39;;;;;;;21.00;10.13;;;;;;;1.83;100.00;98618.38;5040306;28;20460;-86
2022/01/11 09:37:05;;;;;;;19.43;9.60;;;;;;;3.11;100.00;98864.00;5046349;28;20416;-87
2022/01/11 09:39:31;;;;;;;17.10;8.63;;;;;;;2.19;100.00;98704.00;5040355;28;20485;-86
2022/01/11 09:41:59;;;;;;;25.33;12.50;;;;;;;3.56;100.00;98959.47;5036218;28;20504;-86
2022/01/11 09:44:30;;;;;;;16.97;8.97;;;;;;;3.98;100.00;99053.94;5033912;28;20173;-86
2022/01/11 09:46:55;;;;;;;17.70;9.93;;;;;;;3.64;100.00;98976.59;5039116;28;20444;-86
2022/01/11 09:49:22;;;;;;;73.90;24.57;;;;;;;2.15;100.00;98733.63;5040664;28;20413;-86
2022/01/11 09:51:48;;;;;;;20.80;8.60;;;;;;;5.36;100.00;99290.78;5040599;28;20647;-87
2022/01/11 09:54:17;;;;;;;69.30;20.67;;;;;;;4.81;100.00;99185.31;5038977;28;20429;-85
2022/01/11 09:56:42;;;;;;;159.67;44.87;;;;;;;4.71;100.00;99178.84;5038783;28;20455;-87
2022/01/11 09:59:08;;;;;;;41.73;12.47;;;;;;;3.68;100.00;99001.91;5038004;28;20421;-86
2022/01/11 10:01:35;;;;;;;35.87;12.73;;;;;;;2.50;100.00;98823.34;5040468;28;20206;-87
2022/01/11 10:04:04;;;;;;;64.10;18.83;;;;;;;3.03;100.00;98901.78;5037813;28;20269;-86
2022/01/11 10:06:33;;;;;;;22.13;10.30;;;;;;;4.93;100.00;99231.19;5038509;28;20448;-88
2022/01/11 10:09:08;;;;;;;45.33;20.47;;;;;;;5.44;100.00;99292.13;5038011;28;20417;-86
2022/01/11 10:11:39;;;;;;;19.03;10.20;;;;;;;2.21;100.00;98764.00;5039200;28;20417;-87
2022/01/11 10:14:37;;;;;;;18.70;10.17;;;;;;;5.30;100.00;99273.69;5040151;28;20448;-87
2022/01/11 10:17:23;;;;;;;18.70;9.30;;;;;;;5.41;100.00;99291.09;5041006;28;20405;-85
2022/01/11 10:19:59;;;;;;;28.67;13.03;;;;;;;1.19;100.00;98576.78;5019569;28;20438;-86
2022/01/11 10:22:25;;;;;;;152.80;53.33;;;;;;;3.01;100.00;98881.69;5022505;28;20452;-85
2022/01/11 10:24:53;;;;;;;32.93;14.73;;;;;;;2.37;100.00;98786.69;5028741;28;20433;-84
2022/01/11 10:27:20;;;;;;;25.97;13.30;;;;;;;2.23;100.00;98770.81;5033973;28;20182;-85
2022/01/11 10:29:53;;;;;;;49.00;21.37;;;;;;;2.95;100.00;98874.66;5026589;28;20426;-86
2022/01/11 10:32:32;;;;;;;44.40;22.50;;;;;;;4.13;100.00;99066.56;5029163;28;20406;-83
2022/01/11 10:35:08;;;;;;;31.07;15.33;;;;;;;2.47;100.00;98799.03;5024863;28;20475;-87
2022/01/11 10:37:35;;;;;;;19.00;10.17;;;;;;;5.34;100.00;99293.22;5022615;28;20410;-87
2022/01/11 10:40:17;;;;;;;16.70;8.60;;;;;;;5.27;100.00;99300.28;5021755;28;20441;-87
2022/01/11 10:42:53;;;;;;;12.07;6.37;;;;;;;3.09;100.00;98968.06;5019573;28;20414;-86
2022/01/11 10:45:22;;;;;;;12.10;6.77;;;;;;;4.94;100.00;99283.09;5003978;28;20432;-85
2022/01/11 10:48:15;;;;;;;19.30;9.63;;;;;;;2.82;100.00;98924.63;5024161;28;20426;-86
2022/01/11 10:50:48;;;;;;;9.77;5.50;;;;;;;3.66;100.00;99078.53;5019322;28;20432;-89
2022/01/11 10:53:17;;;;;;;12.03;7.17;;;;;;;4.93;100.00;99307.31;5001887;28;20445;-86
2022/01/11 10:55:47;;;;;;;26.37;11.93;;;;;;;4.72;100.00;99251.63;5018740;28;20421;-85
2022/01/11 10:58:12;;;;;;;17.40;8.90;;;;;;;5.03;100.00;99324.66;5018266;28;20441;-87
2022/01/11 11:00:39;;;;;;;14.70;7.87;;;;;;;2.17;100.00;98869.44;5022748;28;20445;-86
2022/01/11 11:03:13;;;;;;;20.00;9.63;;;;;;;2.79;100.00;98941.03;5022596;28;20181;-87
2022/01/11 11:05:41;;;;;;;24.30;13.17;;;;;;;1.35;100.00;98701.66;5019118;28;20521;-84
2022/01/11 11:08:16;;;;;;;42.27;18.87;;;;;;;3.36;100.00;99022.38;5019500;28;20422;-86
2022/01/11 11:10:46;;;;;;;27.83;13.60;;;;;;;5.00;100.00;99303.56;5017849;28;20409;-87
2022/01/11 11:13:21;;;;;;;22.27;11.13;;;;;;;5.07;100.00;99309.06;5018307;28;20414;-87
2022/01/11 11:15:49;;;;;;;18.50;9.07;;;;;;;3.08;100.00;98992.97;5016341;28;20450;-87
2022/01/11 11:18:28;;;;;;;16.60;8.00;;;;;;;3.61;100.00;99094.91;5000808;28;20472;-88
2022/01/11 11:20:55;;;;;;;17.73;8.50;;;;;;;4.69;100.00;99248.06;5020059;28;20480;-86
2022/01/11 11:23:21;;;;;;;14.93;7.40;;;;;;;3.25;100.00;98977.41;5019237;28;20422;-85
2022/01/11 11:25:47;;;;;;;16.10;8.97;;;;;;;3.36;100.00;99021.50;5018654;28;20422;-88
2022/01/11 11:28:14;;;;;;;18.90;8.07;;;;;;;1.90;100.00;98771.09;5020117;28;20441;-87